createdAt,value
2023-03-23T16:56:46.774Z,16.31
2023-03-23T16:59:15.637Z,16.09
2023-03-23T17:01:44.748Z,15.84
2023-03-23T17:04:13.070Z,15.67
2023-03-23T17:06:44.140Z,15.46
2023-03-23T17:09:13.139Z,15.29
2023-03-23T17:11:41.547Z,15.10
2023-03-23T17:14:10.282Z,14.92
2023-03-23T17:16:40.933Z,14.76
2023-03-23T17:19:09.774Z,14.59
2023-03-23T17:21:38.238Z,14.48
2023-03-23T17:24:09.711Z,14.39
2023-03-23T17:26:38.203Z,14.26
2023-03-23T17:29:07.309Z,14.12
2023-03-23T17:31:36.516Z,14.00
2023-03-23T19:42:01.852Z,9.75
2023-03-23T19:44:30.314Z,9.68
2023-03-23T19:46:59.362Z,9.61
2023-03-23T19:49:29.536Z,9.55
2023-03-23T19:52:06.408Z,9.46
2023-03-23T19:54:39.909Z,9.39
2023-03-23T19:57:10.045Z,9.35
2023-03-23T19:59:40.350Z,9.30
2023-03-23T20:02:08.979Z,9.26
2023-03-23T20:04:40.074Z,9.24
2023-03-23T20:07:09.956Z,9.12
2023-03-23T20:09:39.419Z,9.09
2023-03-23T20:12:09.644Z,9.05
2023-03-23T20:14:44.178Z,9.02
2023-03-23T20:17:14.549Z,8.96
2023-03-23T20:19:45.284Z,8.90
2023-03-23T20:22:14.403Z,8.90
2023-03-23T20:24:45.285Z,8.92
2023-03-23T20:27:14.340Z,8.93
2023-03-23T20:29:43.125Z,8.92
2023-03-23T20:32:12.470Z,8.88
2023-03-23T20:34:41.232Z,8.84
2023-03-23T20:37:16.084Z,8.88
2023-03-23T20:39:46.296Z,8.97
2023-03-23T20:42:15.509Z,8.96
2023-03-23T20:44:44.436Z,8.94
2023-03-23T20:47:13.229Z,8.87
2023-03-23T20:49:42.163Z,8.81
2023-03-23T20:52:14.384Z,8.76
2023-03-23T20:54:44.846Z,8.70
2023-03-23T20:57:13.478Z,8.69
2023-03-23T20:59:43.042Z,8.68
2023-03-23T21:02:15.366Z,8.66
2023-03-23T21:04:45.267Z,8.68
2023-03-23T21:07:15.734Z,8.70
2023-03-23T21:09:44.782Z,8.70
2023-03-23T21:12:13.353Z,8.66
2023-03-23T21:14:41.723Z,8.62
2023-03-23T21:17:10.715Z,8.60
2023-03-23T21:19:39.825Z,8.60
2023-03-23T21:22:09.844Z,8.57
2023-03-23T21:24:40.469Z,8.57
2023-03-23T21:27:09.289Z,8.60
2023-03-23T23:58:59.779Z,8.35
